Hampton, NH

7:13 AM EDT on August 28, 2016 (GMT -0400)
Between beach and center of town | | Change Station

Elev 69 ft 42.94 °N, 70.83 °W | Updated 11 minutes ago

Mostly Cloudy
Mostly Cloudy
64.5 °F
Feels Like 64.5 °F
N
0.0
Wind Variable Wind from North

Today
High -- | Low -- °F
--% Chance of Precip.
Yesterday
High -- | Low -- °F
Precip. -- in
Pressure 30.29 in
Visibility 10.0 miles
Clouds Scattered Clouds 7500 ft
Mostly Cloudy 25000 ft
Dew Point 62 °F
Humidity 92%
Rainfall Not available.
Snow Depth Not available.
6:03 AM 7:23 PM
Waning Crescent, 16% visible
METAR KPSM 281058Z 00000KT 10SM SCT075 BKN250 18/16 A3028 RMK AO2A SLP256 T01760158
Pressure 30.29 in
Visibility 10.0 miles
Clouds Scattered Clouds 7500 ft
Mostly Cloudy 25000 ft
Dew Point 62 °F
Humidity 92%
Rainfall Not available.
Snow Depth Not available.
6:03 AM 7:23 PM
Waning Crescent, 16% visible
METAR KPSM 281058Z 00000KT 10SM SCT075 BKN250 18/16 A3028 RMK AO2A SLP256 T01760158

10-Day Weather Forecast

Almanac

Astronomy

Aug. 28, 2016 Rise Set
Actual Time
Civil Twilight
Nautical Twilight
Astronomical Twilight
Moon
Length of Visible Light
Length of Day
Tomorrow will be .
, % of the Moon is Illuminated

Today's Extremes

State Highs State Lows

Community

WunderPhotos

Upload Photos

1,935,543 photos uploaded!

WunderBlog® & News

Nearby

Air Quality

  Air Quality AQ Index Pollutant
Not available.

Snow Depth

Station Depth Elevation

Earthquake Activity

City Distance Mag. Time & Date
Minimum magnitude displayed is 2.5.

Coastal Water Temperatures

Place Temperature

Stations

Nearby Weather Stations

Station Location Temp. Windchill Dew Point Humidity Wind Precip. Elev Updated Type
                   

Watches & Warnings

There are currently no watches in effect.